Time;durP1;ratioP1;P1;durP2;ratioP2;P2;SDS_P1;SDS_P2;PMS_P1;PMS_P2;Temp;Humidity;BMP_temperature;BMP_pressure;BME280_temperature;BME280_humidity;BME280_pressure;Samples;Min_cycle;Max_cycle;Signal;HPM_P1;HPM_P2
2021/08/13 00:01:35;;;;;;;1.30;1.20;;;20.50;98.00;;;;;;5092560;28;20467;-77
2021/08/13 00:04:02;;;;;;;3.50;2.20;;;20.40;98.00;;;;;;5092820;28;20794;-77
2021/08/13 00:06:29;;;;;;;1.90;1.80;;;20.30;98.00;;;;;;5092678;28;20479;-76
2021/08/13 00:08:58;;;;;;;2.67;2.10;;;20.20;98.00;;;;;;5092630;28;20525;-76
2021/08/13 00:11:25;;;;;;;1.67;1.53;;;20.10;98.00;;;;;;5074500;28;20452;-75
2021/08/13 00:13:52;;;;;;;2.37;1.90;;;20.00;98.00;;;;;;5092737;28;20529;-76
2021/08/13 00:16:19;;;;;;;3.00;1.90;;;20.10;98.00;;;;;;5092131;28;20888;-76
2021/08/13 00:18:46;;;;;;;3.47;2.07;;;20.10;98.00;;;;;;5092379;28;20553;-76
2021/08/13 00:21:13;;;;;;;2.90;1.83;;;20.10;98.00;;;;;;5091966;28;20942;-76
2021/08/13 00:23:40;;;;;;;1.73;1.70;;;20.20;98.00;;;;;;5091944;28;20482;-75
2021/08/13 00:26:08;;;;;;;2.33;1.77;;;20.40;98.00;;;;;;5091942;28;20548;-74
2021/08/13 00:28:35;;;;;;;2.00;1.70;;;20.30;98.00;;;;;;5091809;28;20456;-76
2021/08/13 00:31:02;;;;;;;1.73;1.63;;;20.40;98.00;;;;;;5091861;28;20954;-76
2021/08/13 00:33:29;;;;;;;1.90;1.67;;;20.40;98.00;;;;;;5074046;28;20490;-75
2021/08/13 00:35:56;;;;;;;2.57;1.70;;;20.20;98.00;;;;;;5091854;28;20451;-75
2021/08/13 00:38:23;;;;;;;2.07;1.50;;;20.10;98.00;;;;;;5091647;28;20488;-76
2021/08/13 00:40:53;;;;;;;3.97;1.80;;;20.10;98.00;;;;;;5091790;28;20505;-76
2021/08/13 00:43:21;;;;;;;2.03;1.70;;;19.90;98.00;;;;;;5091757;28;20962;-77
2021/08/13 00:45:48;;;;;;;2.27;1.87;;;19.80;98.00;;;;;;5091708;28;20475;-76
2021/08/13 00:48:15;;;;;;;1.70;1.50;;;19.80;98.00;;;;;;5091976;28;20452;-75
2021/08/13 00:50:43;;;;;;;2.33;2.13;;;19.90;98.00;;;;;;5091701;28;20456;-76
2021/08/13 00:53:11;;;;;;;2.20;1.70;;;19.90;98.00;;;;;;5091790;28;20487;-76
2021/08/13 00:55:38;;;;;;;2.00;1.60;;;19.80;98.00;;;;;;5091646;28;20484;-76
2021/08/13 00:58:07;;;;;;;2.27;2.07;;;19.80;98.00;;;;;;5091690;28;20519;-77
2021/08/13 01:00:37;;;;;;;1.90;1.80;;;19.70;98.00;;;;;;5091640;28;20953;-76
2021/08/13 01:03:04;;;;;;;1.97;1.70;;;19.70;98.00;;;;;;5091936;28;20480;-76
2021/08/13 01:05:31;;;;;;;1.83;1.67;;;19.80;98.00;;;;;;5091313;28;20472;-77
2021/08/13 01:07:58;;;;;;;2.37;1.70;;;19.90;98.00;;;;;;5091821;28;20788;-76
2021/08/13 01:10:26;;;;;;;3.60;1.87;;;19.90;98.00;;;;;;5091639;28;20603;-76
2021/08/13 01:13:04;;;;;;;2.33;1.83;;;19.80;98.00;;;;;;5091815;28;20456;-76
2021/08/13 01:15:36;;;;;;;2.60;2.10;;;19.60;98.00;;;;;;5074883;28;20458;-77
2021/08/13 01:18:10;;;;;;;2.33;1.60;;;19.50;98.00;;;;;;5091733;28;20573;-75
2021/08/13 01:21:08;;;;;;;1.90;1.80;;;19.60;98.00;;;;;;5091647;28;20486;-75
2021/08/13 01:23:40;;;;;;;2.90;2.23;;;19.60;98.00;;;;;;5088143;28;20496;-75
2021/08/13 01:26:08;;;;;;;2.50;1.47;;;19.80;98.00;;;;;;5091625;28;20487;-76
2021/08/13 01:28:38;;;;;;;1.60;1.50;;;19.80;98.00;;;;;;5091660;28;20448;-76
2021/08/13 01:31:17;;;;;;;2.17;1.80;;;19.70;98.00;;;;;;5091564;28;20546;-76
2021/08/13 01:33:47;;;;;;;1.50;1.30;;;19.70;98.00;;;;;;5091519;28;20510;-75
2021/08/13 01:36:16;;;;;;;2.07;1.67;;;19.60;98.00;;;;;;5093767;28;21026;-75
2021/08/13 01:38:43;;;;;;;2.33;1.53;;;19.50;98.00;;;;;;5095242;28;20578;-76
2021/08/13 01:41:13;;;;;;;1.63;1.47;;;19.50;98.00;;;;;;5095234;28;20479;-76
2021/08/13 01:43:43;;;;;;;1.80;1.70;;;19.40;98.00;;;;;;5076951;28;20882;-76
2021/08/13 01:46:11;;;;;;;2.23;1.67;;;19.40;98.00;;;;;;5095088;28;20464;-76
2021/08/13 01:48:38;;;;;;;2.63;2.07;;;19.50;98.00;;;;;;5095295;28;20898;-76
2021/08/13 01:51:08;;;;;;;1.43;1.40;;;19.50;98.00;;;;;;5094736;28;20966;-76
2021/08/13 01:53:36;;;;;;;3.97;1.90;;;19.60;98.00;;;;;;5094988;28;20456;-75
2021/08/13 01:56:04;;;;;;;1.90;1.50;;;19.50;98.00;;;;;;5094964;28;20495;-77
2021/08/13 01:58:31;;;;;;;1.63;1.63;;;19.50;98.00;;;;;;5076900;28;20490;-76
2021/08/13 02:00:58;;;;;;;1.50;1.50;;;19.50;98.00;;;;;;5094740;28;21009;-76
2021/08/13 02:03:27;;;;;;;1.93;1.87;;;19.50;98.00;;;;;;5094851;28;20487;-75
2021/08/13 02:05:55;;;;;;;2.30;1.70;;;19.50;98.00;;;;;;5094710;28;20476;-76
2021/08/13 02:08:25;;;;;;;3.20;2.20;;;19.60;98.00;;;;;;5094595;28;20555;-75
2021/08/13 02:10:53;;;;;;;1.80;1.60;;;19.50;98.00;;;;;;5094562;28;21004;-75
2021/08/13 02:13:21;;;;;;;3.33;2.23;;;19.30;98.00;;;;;;5094706;28;20540;-76
2021/08/13 02:15:55;;;;;;;3.10;1.90;;;19.20;98.00;;;;;;5094490;28;20483;-77
2021/08/13 02:18:24;;;;;;;2.13;1.67;;;19.10;98.00;;;;;;5094483;28;20554;-76
2021/08/13 02:20:55;;;;;;;2.77;1.80;;;19.20;98.00;;;;;;5094511;28;20524;-76
2021/08/13 02:23:24;;;;;;;2.57;1.50;;;19.20;98.00;;;;;;5094561;28;20539;-75
2021/08/13 02:25:51;;;;;;;1.90;1.80;;;19.10;98.00;;;;;;5094296;28;20487;-76
2021/08/13 02:28:18;;;;;;;3.00;1.80;;;19.20;98.00;;;;;;5094510;28;20758;-75
2021/08/13 02:30:45;;;;;;;2.03;1.83;;;19.00;98.00;;;;;;5094270;28;20452;-75
2021/08/13 02:33:12;;;;;;;2.33;1.40;;;18.90;98.00;;;;;;5094228;28;20871;-75
2021/08/13 02:35:40;;;;;;;1.73;1.60;;;18.90;98.00;;;;;;5094171;28;20456;-76
2021/08/13 02:38:12;;;;;;;2.33;2.00;;;19.10;98.00;;;;;;5076368;28;20522;-77
2021/08/13 02:40:51;;;;;;;1.50;1.30;;;19.30;98.00;;;;;;5094137;28;20491;-75
2021/08/13 02:43:23;;;;;;;3.60;2.37;;;19.30;98.00;;;;;;5094153;28;20488;-76
2021/08/13 02:45:55;;;;;;;2.23;1.67;;;19.40;98.00;;;;;;5093996;28;20547;-76
2021/08/13 02:48:22;;;;;;;3.90;1.57;;;19.40;98.00;;;;;;5075612;28;20806;-76
2021/08/13 02:50:51;;;;;;;2.90;2.00;;;19.30;98.00;;;;;;5093872;28;20547;-75
2021/08/13 02:53:21;;;;;;;1.40;1.40;;;19.30;98.00;;;;;;5094209;28;20480;-75
2021/08/13 02:55:54;;;;;;;3.10;2.07;;;19.20;98.00;;;;;;5093919;28;20513;-76
2021/08/13 02:58:25;;;;;;;3.13;1.63;;;19.10;98.00;;;;;;5093878;28;20480;-76
2021/08/13 03:00:53;;;;;;;1.70;1.60;;;19.20;98.00;;;;;;5093808;28;20969;-76
2021/08/13 03:03:21;;;;;;;2.20;1.67;;;19.40;98.00;;;;;;5093746;28;20484;-76
2021/08/13 03:05:51;;;;;;;2.73;1.50;;;19.40;98.00;;;;;;5093514;28;20473;-75
2021/08/13 03:08:20;;;;;;;1.97;1.50;;;19.40;98.00;;;;;;5093685;28;20502;-76
2021/08/13 03:10:49;;;;;;;2.00;1.50;;;19.40;98.00;;;;;;5093176;28;20946;-75
2021/08/13 03:13:17;;;;;;;2.50;1.77;;;19.30;98.00;;;;;;5093359;28;20540;-77
2021/08/13 03:15:46;;;;;;;2.10;1.67;;;19.40;98.00;;;;;;5092881;28;20515;-75
2021/08/13 03:18:14;;;;;;;2.20;1.93;;;19.20;98.00;;;;;;5075394;28;20567;-76
2021/08/13 03:20:42;;;;;;;2.27;1.50;;;19.10;98.00;;;;;;5093055;28;20484;-76
2021/08/13 03:23:10;;;;;;;3.47;1.87;;;19.00;98.00;;;;;;5093277;28;20483;-76
2021/08/13 03:25:38;;;;;;;2.83;2.10;;;19.00;98.00;;;;;;5093081;28;20487;-76
2021/08/13 03:28:08;;;;;;;3.03;2.10;;;19.00;98.00;;;;;;5092990;28;20501;-76
2021/08/13 03:30:40;;;;;;;1.87;1.87;;;19.10;98.00;;;;;;5093004;28;20459;-76
2021/08/13 03:33:09;;;;;;;1.93;1.70;;;19.10;98.00;;;;;;5093138;28;20491;-77
2021/08/13 03:35:36;;;;;;;2.17;1.57;;;19.20;98.00;;;;;;5092930;28;20950;-77
2021/08/13 03:38:03;;;;;;;2.63;2.17;;;19.40;98.00;;;;;;5092873;28;20512;-76
2021/08/13 03:40:32;;;;;;;2.10;1.53;;;19.40;98.00;;;;;;5092883;28;20994;-75
2021/08/13 03:42:59;;;;;;;3.40;2.47;;;19.40;98.00;;;;;;5075282;28;20473;-76
2021/08/13 03:45:28;;;;;;;2.00;1.70;;;19.50;98.00;;;;;;5092969;28;20883;-76
2021/08/13 03:47:55;;;;;;;1.80;1.50;;;19.40;98.00;;;;;;5075074;28;20895;-75
2021/08/13 03:50:22;;;;;;;1.60;1.50;;;19.40;98.00;;;;;;5092908;28;20872;-77
2021/08/13 03:52:49;;;;;;;2.00;1.53;;;19.50;98.00;;;;;;5092747;28;20505;-77
2021/08/13 03:55:16;;;;;;;2.20;1.67;;;19.50;98.00;;;;;;5092765;28;20452;-75
2021/08/13 03:57:44;;;;;;;1.63;1.60;;;19.50;98.00;;;;;;5092580;28;20913;-75
2021/08/13 04:00:12;;;;;;;2.63;1.83;;;19.50;98.00;;;;;;5091685;28;20567;-76
2021/08/13 04:02:41;;;;;;;2.27;1.83;;;19.50;98.00;;;;;;5092551;28;20872;-76
2021/08/13 04:05:09;;;;;;;1.77;1.53;;;19.30;98.00;;;;;;5074609;28;20976;-76
2021/08/13 04:07:36;;;;;;;3.47;2.63;;;19.40;98.00;;;;;;5092581;28;20476;-76
2021/08/13 04:10:03;;;;;;;1.80;1.73;;;19.40;98.00;;;;;;5092422;28;20980;-76
2021/08/13 04:12:31;;;;;;;1.70;1.60;;;19.40;98.00;;;;;;5092399;28;20851;-76
2021/08/13 04:14:58;;;;;;;2.30;1.83;;;19.50;98.00;;;;;;5092624;28;20575;-75
2021/08/13 04:17:25;;;;;;;1.70;1.67;;;19.60;98.00;;;;;;5092369;28;20492;-75
2021/08/13 04:19:53;;;;;;;3.00;2.30;;;19.50;98.00;;;;;;5092228;28;20483;-76
2021/08/13 04:22:20;;;;;;;1.87;1.73;;;19.60;98.00;;;;;;5074365;28;20945;-76
2021/08/13 04:24:47;;;;;;;2.00;1.70;;;19.40;98.00;;;;;;5091986;28;20508;-76
2021/08/13 04:27:14;;;;;;;2.30;1.77;;;19.30;98.00;;;;;;5092155;28;20499;-77
2021/08/13 04:29:41;;;;;;;1.93;1.67;;;19.30;98.00;;;;;;5092275;28;20491;-75
2021/08/13 04:32:09;;;;;;;3.37;2.40;;;19.30;98.00;;;;;;5091733;28;20518;-76
2021/08/13 04:34:35;;;;;;;3.60;2.33;;;19.50;98.00;;;;;;5091805;28;20516;-77
2021/08/13 04:37:04;;;;;;;2.07;1.63;;;19.50;98.00;;;;;;5091995;28;20941;-76
2021/08/13 04:39:31;;;;;;;2.27;1.50;;;19.50;98.00;;;;;;5091922;28;20573;-75
2021/08/13 04:41:58;;;;;;;2.13;1.50;;;19.50;98.00;;;;;;5073902;28;20455;-77
2021/08/13 04:44:25;;;;;;;3.00;1.87;;;19.70;98.00;;;;;;5092061;28;20448;-75
2021/08/13 04:46:52;;;;;;;2.87;2.20;;;19.60;98.00;;;;;;5074084;28;20470;-76
2021/08/13 04:49:19;;;;;;;1.90;1.50;;;19.60;98.00;;;;;;5091774;28;20491;-75
2021/08/13 04:51:46;;;;;;;6.60;1.90;;;19.70;98.00;;;;;;5074038;28;20479;-76
2021/08/13 04:54:15;;;;;;;1.70;1.60;;;19.70;98.00;;;;;;5091888;28;20490;-77
2021/08/13 04:56:42;;;;;;;2.60;1.83;;;19.70;98.00;;;;;;5091587;28;20456;-75
2021/08/13 04:59:09;;;;;;;1.97;1.83;;;19.70;98.00;;;;;;5091592;28;20577;-76
2021/08/13 05:01:36;;;;;;;2.90;1.87;;;19.60;98.00;;;;;;5091665;28;20456;-76
2021/08/13 05:04:04;;;;;;;2.03;1.60;;;19.60;98.00;;;;;;5091637;28;20530;-76
2021/08/13 05:06:30;;;;;;;2.47;1.77;;;19.60;98.00;;;;;;5091491;28;20460;-77
2021/08/13 05:08:57;;;;;;;2.43;1.90;;;19.40;98.00;;;;;;5091908;28;20859;-76
2021/08/13 05:11:26;;;;;;;3.00;2.10;;;19.50;98.00;;;;;;5076302;28;20505;-76
2021/08/13 05:13:53;;;;;;;1.50;1.47;;;19.60;98.00;;;;;;5095724;28;20480;-76
2021/08/13 05:16:20;;;;;;;2.43;1.63;;;19.70;98.00;;;;;;5077966;28;20491;-77
2021/08/13 05:18:47;;;;;;;2.20;1.83;;;19.80;98.00;;;;;;5077479;28;20515;-75
2021/08/13 05:21:14;;;;;;;1.90;1.60;;;19.80;98.00;;;;;;5095586;28;20508;-75
2021/08/13 05:23:41;;;;;;;3.30;1.80;;;19.60;98.00;;;;;;5095770;28;20451;-75
2021/08/13 05:26:08;;;;;;;2.37;2.13;;;19.50;98.00;;;;;;5095506;28;20483;-77
2021/08/13 05:28:36;;;;;;;2.97;1.77;;;19.60;98.00;;;;;;5095650;28;20491;-76
2021/08/13 05:31:03;;;;;;;1.70;1.60;;;19.80;98.00;;;;;;5095382;28;20484;-76
2021/08/13 05:33:30;;;;;;;2.13;1.63;;;19.80;98.00;;;;;;5095324;28;20558;-75
2021/08/13 05:35:58;;;;;;;1.90;1.60;;;19.70;98.00;;;;;;5095674;28;20517;-76
2021/08/13 05:38:25;;;;;;;1.90;1.50;;;19.70;98.00;;;;;;5095447;28;20461;-75
2021/08/13 05:40:52;;;;;;;2.00;1.63;;;19.50;98.00;;;;;;5095217;28;20455;-75
2021/08/13 05:43:19;;;;;;;2.50;1.63;;;19.50;98.00;;;;;;5077622;28;20452;-75
2021/08/13 05:45:47;;;;;;;2.00;1.60;;;19.70;98.00;;;;;;5077029;28;20521;-76
2021/08/13 05:48:17;;;;;;;1.80;1.60;;;19.90;98.00;;;;;;5094913;28;20513;-76
2021/08/13 05:50:44;;;;;;;2.00;1.90;;;20.00;98.00;;;;;;5095068;28;20454;-76
2021/08/13 05:53:11;;;;;;;1.60;1.60;;;20.00;98.00;;;;;;5094996;28;20491;-76
2021/08/13 05:55:38;;;;;;;2.50;1.90;;;19.90;98.00;;;;;;5094924;28;20949;-76
2021/08/13 05:58:05;;;;;;;2.00;1.90;;;19.90;98.00;;;;;;5077207;28;20491;-75
2021/08/13 06:00:32;;;;;;;2.63;2.10;;;19.90;98.00;;;;;;5094827;28;20479;-77
2021/08/13 06:03:03;;;;;;;2.23;2.10;;;19.90;98.00;;;;;;5094592;28;20488;-76
2021/08/13 06:05:30;;;;;;;1.90;1.63;;;20.00;98.00;;;;;;5094873;28;20869;-76
2021/08/13 06:07:57;;;;;;;2.50;2.30;;;19.80;98.00;;;;;;5094685;28;20524;-74
2021/08/13 06:10:27;;;;;;;1.80;1.60;;;19.90;98.00;;;;;;5094583;28;20474;-75
2021/08/13 06:12:54;;;;;;;2.07;1.70;;;19.90;98.00;;;;;;5076515;28;20487;-75
2021/08/13 06:15:23;;;;;;;3.13;2.33;;;20.10;98.00;;;;;;5093868;28;20491;-75
2021/08/13 06:17:50;;;;;;;2.13;1.97;;;20.10;98.00;;;;;;5093691;28;20945;-75
2021/08/13 06:20:19;;;;;;;2.80;2.20;;;20.10;98.00;;;;;;5093679;28;20915;-75
2021/08/13 06:22:46;;;;;;;2.70;1.80;;;20.30;98.00;;;;;;5092514;28;20500;-76
2021/08/13 06:25:13;;;;;;;1.97;1.90;;;20.40;98.00;;;;;;5094425;28;20456;-75
2021/08/13 06:27:42;;;;;;;2.33;1.60;;;20.60;98.00;;;;;;5094404;28;20532;-77
2021/08/13 06:30:11;;;;;;;3.37;2.23;;;20.80;98.00;;;;;;5094271;28;20504;-77
2021/08/13 06:32:38;;;;;;;1.70;1.60;;;20.90;98.00;;;;;;5094057;28;20564;-76
2021/08/13 06:35:06;;;;;;;3.03;2.30;;;21.00;98.00;;;;;;5094002;28;20474;-76
2021/08/13 06:37:44;;;;;;;3.43;2.30;;;21.00;98.00;;;;;;5076257;28;20462;-77
2021/08/13 06:40:12;;;;;;;2.17;1.93;;;21.00;98.00;;;;;;5094068;28;20508;-76
2021/08/13 06:42:39;;;;;;;2.63;1.97;;;20.90;98.00;;;;;;5094130;28;20463;-76
2021/08/13 06:45:07;;;;;;;2.43;1.80;;;21.00;98.00;;;;;;5075934;28;20813;-75
2021/08/13 06:47:35;;;;;;;1.73;1.63;;;21.20;98.00;;;;;;5094034;28;21132;-75
2021/08/13 06:50:02;;;;;;;2.07;1.57;;;21.60;98.00;;;;;;5094254;28;20459;-77
2021/08/13 06:52:29;;;;;;;1.60;1.60;;;21.90;98.00;;;;;;5093906;28;20464;-75
2021/08/13 06:54:57;;;;;;;1.80;1.70;;;22.30;98.00;;;;;;5094190;28;20513;-78
2021/08/13 06:57:24;;;;;;;1.80;1.70;;;22.50;98.00;;;;;;5094294;28;20503;-78
2021/08/13 06:59:51;;;;;;;1.83;1.67;;;22.70;98.00;;;;;;5094175;28;20568;-76
2021/08/13 07:02:18;;;;;;;2.10;1.73;;;22.90;98.00;;;;;;5093834;28;20495;-77
2021/08/13 07:04:46;;;;;;;2.93;2.10;;;23.20;98.00;;;;;;5093573;28;20966;-76
2021/08/13 07:07:14;;;;;;;1.90;1.50;;;23.40;98.00;;;;;;5075389;28;20490;-77
2021/08/13 07:09:45;;;;;;;2.30;1.90;;;23.50;98.00;;;;;;5093810;28;20448;-75
2021/08/13 07:12:14;;;;;;;2.50;1.80;;;23.70;98.00;;;;;;5093382;28;20509;-77
2021/08/13 07:14:45;;;;;;;2.30;1.90;;;23.90;98.00;;;;;;5093214;28;20456;-76
2021/08/13 07:17:12;;;;;;;3.30;2.57;;;24.00;98.00;;;;;;5093284;28;20447;-76
2021/08/13 07:19:39;;;;;;;2.80;1.80;;;24.10;98.00;;;;;;5093325;28;20569;-78
2021/08/13 07:22:06;;;;;;;2.97;1.90;;;24.20;98.00;;;;;;5093143;28;20491;-77
2021/08/13 07:24:33;;;;;;;2.63;1.80;;;24.40;98.00;;;;;;5075219;28;20488;-78
2021/08/13 07:27:01;;;;;;;2.03;1.60;;;24.40;98.00;;;;;;5093196;28;20488;-78
2021/08/13 07:29:29;;;;;;;1.90;1.80;;;24.50;98.00;;;;;;5093116;28;20503;-76
2021/08/13 07:31:56;;;;;;;2.93;1.90;;;24.40;98.00;;;;;;5092625;28;21072;-75
2021/08/13 07:34:23;;;;;;;2.00;1.77;;;24.40;98.00;;;;;;5078918;28;20457;-77
2021/08/13 07:36:51;;;;;;;3.20;2.30;;;24.50;98.00;;;;;;5084913;28;20543;-78
2021/08/13 07:39:18;;;;;;;4.07;2.77;;;24.50;98.00;;;;;;5073403;28;20485;-77
2021/08/13 07:41:46;;;;;;;4.27;2.60;;;24.60;98.00;;;;;;5070118;28;20445;-75
2021/08/13 07:44:13;;;;;;;2.53;2.43;;;24.70;98.00;;;;;;5072316;28;20515;-76
2021/08/13 07:46:41;;;;;;;3.03;2.30;;;24.60;98.00;;;;;;5079358;28;20487;-78
2021/08/13 07:49:09;;;;;;;2.50;1.70;;;24.70;98.00;;;;;;5044595;28;20489;-80
2021/08/13 07:51:36;;;;;;;1.93;1.83;;;24.80;98.00;;;;;;5078279;28;20508;-78
2021/08/13 07:54:05;;;;;;;3.60;2.50;;;24.90;98.00;;;;;;5070905;28;20453;-77
2021/08/13 07:56:32;;;;;;;3.00;2.47;;;24.90;98.00;;;;;;5050553;28;20452;-78
2021/08/13 07:58:59;;;;;;;3.40;2.30;;;25.00;98.00;;;;;;5072674;28;20546;-78
2021/08/13 08:01:26;;;;;;;3.00;2.20;;;25.10;98.00;;;;;;5070474;28;20497;-78
2021/08/13 08:03:54;;;;;;;3.30;2.10;;;25.20;98.00;;;;;;5084373;28;20480;-76
2021/08/13 08:06:21;;;;;;;3.33;2.30;;;25.20;98.00;;;;;;5078746;28;20851;-77
2021/08/13 08:08:48;;;;;;;2.60;1.83;;;25.30;98.00;;;;;;5079559;28;20452;-79
2021/08/13 08:11:15;;;;;;;2.73;2.07;;;25.30;98.00;;;;;;5064119;28;20499;-79
2021/08/13 08:13:42;;;;;;;2.80;2.27;;;25.30;98.00;;;;;;5084820;28;20452;-79
2021/08/13 08:16:09;;;;;;;2.23;1.90;;;25.30;98.00;;;;;;5061441;28;20464;-77
2021/08/13 08:18:36;;;;;;;3.50;2.30;;;25.40;98.00;;;;;;5075087;28;20453;-77
2021/08/13 08:21:05;;;;;;;3.40;2.20;;;25.50;98.00;;;;;;5070649;28;21006;-79
2021/08/13 08:23:32;;;;;;;3.13;2.20;;;25.40;98.00;;;;;;5070597;28;20449;-78
2021/08/13 08:25:59;;;;;;;3.23;2.30;;;25.50;98.00;;;;;;5074670;28;20871;-76
2021/08/13 08:28:26;;;;;;;5.03;2.50;;;25.70;98.00;;;;;;5075387;28;20796;-79
2021/08/13 08:30:52;;;;;;;4.83;2.40;;;25.80;98.00;;;;;;5073816;28;20492;-76
2021/08/13 08:33:19;;;;;;;3.83;2.43;;;26.00;98.00;;;;;;5087677;28;20463;-79
2021/08/13 08:35:47;;;;;;;4.27;2.57;;;26.10;98.00;;;;;;5074440;28;20473;-78
2021/08/13 08:38:16;;;;;;;3.43;2.10;;;26.20;98.00;;;;;;5079260;28;20453;-78
2021/08/13 08:40:43;;;;;;;2.63;2.10;;;26.20;98.00;;;;;;5069240;28;20567;-79
2021/08/13 08:43:11;;;;;;;2.90;2.37;;;26.30;98.00;;;;;;5078424;28;20970;-76
2021/08/13 08:45:40;;;;;;;3.23;2.47;;;26.30;98.00;;;;;;5086701;28;20487;-77
2021/08/13 08:48:08;;;;;;;2.97;2.07;;;26.20;98.00;;;;;;5084103;28;20939;-77
2021/08/13 08:50:37;;;;;;;2.57;2.10;;;26.10;98.00;;;;;;5074448;28;20519;-77
2021/08/13 08:53:09;;;;;;;4.23;2.40;;;26.10;98.00;;;;;;5073226;28;20467;-77
2021/08/13 08:55:38;;;;;;;5.23;2.93;;;26.30;98.00;;;;;;5086035;28;20639;-78
2021/08/13 08:58:10;;;;;;;5.03;2.60;;;26.40;98.00;;;;;;5070035;28;20505;-76
2021/08/13 09:00:45;;;;;;;3.13;2.30;;;26.50;98.00;;;;;;5055818;28;20559;-78
2021/08/13 09:03:14;;;;;;;3.97;2.50;;;26.70;98.00;;;;;;5070564;28;20452;-78
2021/08/13 09:05:41;;;;;;;4.97;2.40;;;26.90;98.00;;;;;;5070787;28;20453;-79
2021/08/13 09:08:11;;;;;;;4.10;2.63;;;26.90;98.00;;;;;;5070804;28;20460;-79
2021/08/13 09:10:41;;;;;;;3.13;2.00;;;27.10;98.00;;;;;;5036899;28;20460;-77
2021/08/13 09:13:10;;;;;;;5.30;2.30;;;27.20;98.00;;;;;;5070039;28;20499;-77
2021/08/13 09:15:39;;;;;;;3.30;2.90;;;27.30;98.00;;;;;;5089805;28;20517;-78
2021/08/13 09:18:18;;;;;;;3.50;2.37;;;27.30;98.00;;;;;;5090755;28;20513;-78
2021/08/13 09:20:48;;;;;;;4.23;2.50;;;27.40;98.00;;;;;;5090767;28;20570;-77
2021/08/13 09:23:39;;;;;;;5.30;2.67;;;27.40;98.00;;;;;;5090688;28;20464;-76
2021/08/13 09:26:11;;;;;;;3.17;2.30;;;27.70;98.00;;;;;;5090850;28;20995;-76
2021/08/13 09:28:43;;;;;;;2.23;2.10;;;27.80;97.30;;;;;;5090831;28;20479;-77
2021/08/13 09:31:18;;;;;;;4.60;3.10;;;27.90;97.00;;;;;;5075969;28;20488;-76
2021/08/13 09:33:48;;;;;;;3.23;2.30;;;28.00;96.40;;;;;;5071089;28;20544;-78
2021/08/13 09:36:17;;;;;;;4.77;2.30;;;28.00;96.80;;;;;;5070566;28;20488;-78
2021/08/13 09:38:44;;;;;;;3.07;2.40;;;28.10;97.60;;;;;;5078072;28;20982;-79
2021/08/13 09:41:14;;;;;;;3.53;2.73;;;28.20;96.90;;;;;;5078845;28;20568;-78
2021/08/13 09:44:00;;;;;;;3.90;2.47;;;28.40;98.00;;;;;;5075671;28;20745;-75
2021/08/13 09:46:29;;;;;;;3.00;2.40;;;28.70;96.30;;;;;;5077046;28;20475;-78
2021/08/13 09:49:13;;;;;;;4.60;2.80;;;28.80;94.30;;;;;;5068600;28;20449;-79
2021/08/13 09:51:41;;;;;;;2.60;2.17;;;28.90;95.10;;;;;;5077962;28;20463;-77
2021/08/13 09:54:09;;;;;;;2.73;2.40;;;29.00;94.50;;;;;;5077773;28;20453;-78
2021/08/13 09:56:39;;;;;;;2.73;2.40;;;29.10;94.90;;;;;;5069702;28;20868;-77
2021/08/13 09:59:14;;;;;;;4.73;3.43;;;29.20;95.20;;;;;;5072346;28;20518;-77
2021/08/13 10:01:43;;;;;;;3.40;2.60;;;29.40;94.10;;;;;;5080809;28;20601;-77
2021/08/13 10:04:10;;;;;;;6.23;2.57;;;29.50;93.20;;;;;;5079670;28;20498;-77
2021/08/13 10:06:38;;;;;;;3.50;2.43;;;29.50;93.30;;;;;;5081236;28;20445;-79
2021/08/13 10:09:06;;;;;;;3.80;2.87;;;29.50;91.80;;;;;;5078682;28;20513;-74
2021/08/13 10:11:35;;;;;;;4.73;2.60;;;29.50;92.30;;;;;;5082112;28;20484;-74
2021/08/13 10:14:06;;;;;;;3.50;2.47;;;29.50;92.60;;;;;;5068399;28;20531;-74
2021/08/13 10:16:33;;;;;;;5.10;2.77;;;29.50;91.60;;;;;;5072260;28;20484;-74
2021/08/13 10:19:01;;;;;;;3.17;2.20;;;29.70;92.00;;;;;;5073379;28;20461;-74
2021/08/13 10:21:29;;;;;;;6.20;2.87;;;29.70;91.90;;;;;;5038849;28;20500;-74
2021/08/13 10:23:57;;;;;;;3.40;2.40;;;29.70;91.50;;;;;;5073423;28;20544;-74
2021/08/13 10:26:25;;;;;;;2.50;2.10;;;29.60;92.80;;;;;;5054191;28;20793;-73
2021/08/13 10:28:53;;;;;;;3.63;2.50;;;29.70;90.50;;;;;;5073216;28;20464;-74
2021/08/13 10:31:22;;;;;;;2.73;2.10;;;29.80;91.30;;;;;;5073265;28;20480;-76
2021/08/13 10:33:50;;;;;;;4.90;2.90;;;29.90;92.20;;;;;;5073027;28;20465;-74
2021/08/13 10:36:18;;;;;;;2.70;2.00;;;30.00;91.70;;;;;;5073164;28;20531;-74
2021/08/13 10:38:50;;;;;;;3.00;2.50;;;30.20;92.30;;;;;;5073170;28;20889;-72
2021/08/13 10:41:23;;;;;;;3.97;2.50;;;30.20;92.50;;;;;;5072796;28;20481;-74
2021/08/13 10:43:52;;;;;;;3.07;2.30;;;30.40;90.40;;;;;;5073208;28;20456;-74
2021/08/13 10:46:23;;;;;;;4.90;2.93;;;30.60;90.30;;;;;;5073126;28;20484;-73
2021/08/13 10:48:52;;;;;;;3.00;2.37;;;30.70;89.20;;;;;;5055343;28;20449;-74
2021/08/13 10:51:30;;;;;;;4.03;2.43;;;30.80;89.30;;;;;;5072930;28;20514;-74
2021/08/13 10:54:07;;;;;;;4.97;3.00;;;30.80;90.20;;;;;;5073249;28;20585;-74
2021/08/13 10:56:39;;;;;;;4.60;2.77;;;30.90;90.20;;;;;;5072764;28;20456;-74
2021/08/13 10:59:07;;;;;;;8.33;3.10;;;30.90;89.20;;;;;;5054950;28;20461;-73
2021/08/13 11:01:35;;;;;;;3.73;2.53;;;30.90;89.00;;;;;;5072624;28;21000;-74
2021/08/13 11:04:13;;;;;;;4.47;2.60;;;30.90;89.10;;;;;;5072828;28;20493;-74
2021/08/13 11:06:45;;;;;;;7.80;2.60;;;31.00;90.10;;;;;;5055147;28;20532;-74
2021/08/13 11:09:13;;;;;;;2.80;2.17;;;31.10;89.10;;;;;;5072465;28;20810;-73
2021/08/13 11:12:07;;;;;;;6.00;2.87;;;31.20;88.70;;;;;;5072648;28;20461;-74
2021/08/13 11:14:36;;;;;;;3.43;2.50;;;31.20;87.90;;;;;;5082757;28;20483;-74
2021/08/13 11:17:05;;;;;;;3.30;2.30;;;31.30;87.70;;;;;;5092918;28;20812;-74
2021/08/13 11:19:59;;;;;;;4.80;3.13;;;31.40;88.10;;;;;;5092585;28;20452;-74
2021/08/13 11:22:34;;;;;;;2.93;2.20;;;31.50;88.60;;;;;;5092474;28;20519;-75
2021/08/13 11:25:04;;;;;;;5.37;3.00;;;31.70;88.90;;;;;;5092626;28;20483;-74
2021/08/13 11:27:31;;;;;;;4.70;3.27;;;31.80;87.40;;;;;;5092453;28;20456;-74
2021/08/13 11:29:58;;;;;;;5.20;3.23;;;32.00;86.10;;;;;;5058338;28;20524;-75
2021/08/13 11:32:33;;;;;;;2.90;2.30;;;31.90;87.10;;;;;;5092317;28;20467;-75
2021/08/13 11:35:03;;;;;;;5.37;3.00;;;32.10;87.30;;;;;;5092428;28;20477;-75
2021/08/13 11:37:52;;;;;;;4.80;2.80;;;32.10;85.60;;;;;;5092207;28;20534;-75
2021/08/13 11:40:49;;;;;;;4.23;2.80;;;32.30;87.50;;;;;;5092186;28;20456;-76
2021/08/13 11:43:18;;;;;;;5.63;3.03;;;32.50;86.00;;;;;;5092082;28;20459;-75
2021/08/13 11:45:47;;;;;;;3.87;3.10;;;32.50;86.30;;;;;;5074109;28;20510;-75
2021/08/13 11:48:20;;;;;;;4.50;2.80;;;32.50;86.30;;;;;;5092023;28;20484;-76
2021/08/13 11:50:48;;;;;;;4.43;3.00;;;32.60;85.60;;;;;;5073665;28;20513;-75
2021/08/13 11:53:15;;;;;;;4.07;2.93;;;32.80;85.90;;;;;;5092100;28;20456;-75
2021/08/13 11:55:44;;;;;;;3.73;2.50;;;32.90;84.60;;;;;;5091720;28;20488;-75
2021/08/13 11:58:23;;;;;;;3.37;2.60;;;32.80;84.20;;;;;;5091814;28;20803;-75
2021/08/13 12:01:02;;;;;;;3.30;2.53;;;32.70;85.30;;;;;;5091711;28;20851;-74
2021/08/13 12:03:30;;;;;;;3.60;2.67;;;32.60;84.70;;;;;;5091657;28;20847;-74
2021/08/13 12:05:58;;;;;;;4.67;3.07;;;32.60;84.50;;;;;;5091967;28;20849;-75
2021/08/13 12:08:25;;;;;;;5.03;2.90;;;32.60;84.60;;;;;;5091787;28;20486;-75
2021/08/13 12:10:52;;;;;;;4.80;2.50;;;32.50;84.30;;;;;;5091878;28;20456;-75
2021/08/13 12:13:22;;;;;;;3.53;2.90;;;32.50;85.20;;;;;;5089446;28;20452;-76
2021/08/13 12:15:49;;;;;;;4.70;3.17;;;32.60;84.60;;;;;;5071665;28;20460;-74
2021/08/13 12:18:16;;;;;;;4.60;3.30;;;32.60;83.60;;;;;;5071378;28;20491;-75
2021/08/13 12:20:49;;;;;;;4.57;3.40;;;32.70;85.20;;;;;;5070431;28;20492;-74
2021/08/13 12:23:18;;;;;;;4.43;3.07;;;32.60;84.40;;;;;;5071244;28;20464;-74
2021/08/13 12:25:46;;;;;;;4.03;2.57;;;32.50;84.90;;;;;;5053705;28;20457;-74
2021/08/13 12:28:14;;;;;;;3.73;2.63;;;32.30;87.00;;;;;;5071104;28;20496;-74
2021/08/13 12:30:41;;;;;;;5.27;2.97;;;32.30;86.00;;;;;;5071168;28;20457;-74
2021/08/13 12:33:15;;;;;;;2.90;2.60;;;32.40;84.10;;;;;;5070524;28;20461;-75
2021/08/13 12:35:44;;;;;;;2.83;2.30;;;32.50;86.50;;;;;;5071175;28;20461;-75
2021/08/13 12:38:13;;;;;;;3.20;2.63;;;32.60;84.50;;;;;;5070829;28;20457;-75
2021/08/13 12:40:47;;;;;;;4.90;3.27;;;32.60;86.60;;;;;;5071036;28;20453;-74
2021/08/13 12:43:17;;;;;;;5.00;3.20;;;32.80;84.80;;;;;;5070930;28;20452;-75
2021/08/13 12:45:44;;;;;;;3.60;2.50;;;32.90;82.90;;;;;;5070995;28;20689;-75
2021/08/13 12:48:12;;;;;;;2.93;2.50;;;33.00;82.40;;;;;;5070913;28;20908;-75
2021/08/13 12:50:39;;;;;;;4.00;2.70;;;33.00;84.90;;;;;;5052991;28;20452;-75
2021/08/13 12:53:12;;;;;;;3.40;2.70;;;33.00;83.20;;;;;;5070707;28;20875;-76
2021/08/13 12:55:45;;;;;;;4.60;3.10;;;33.10;85.30;;;;;;5070709;28;20487;-74
2021/08/13 12:58:28;;;;;;;4.17;3.00;;;33.30;82.90;;;;;;5070836;28;20522;-76